sensor_id;sensor_type;location;lat;lon;timestamp;temperature;humidity
13707;DHT22;6925;47.816;13.072;2022-07-22T00:19:20;23.70;75.10
13707;DHT22;6925;47.816;13.072;2022-07-22T00:22:01;23.70;75.20
13707;DHT22;6925;47.816;13.072;2022-07-22T00:24:45;23.60;75.00
13707;DHT22;6925;47.816;13.072;2022-07-22T00:31:02;23.60;75.30
13707;DHT22;6925;47.816;13.072;2022-07-22T00:33:50;23.50;75.20
13707;DHT22;6925;47.816;13.072;2022-07-22T00:56:55;23.40;75.30
13707;DHT22;6925;47.816;13.072;2022-07-22T02:10:08;22.80;76.00
13707;DHT22;6925;47.816;13.072;2022-07-22T03:04:27;22.70;75.90
13707;DHT22;6925;47.816;13.072;2022-07-22T03:07:00;22.60;75.80
13707;DHT22;6925;47.816;13.072;2022-07-22T03:09:38;22.70;75.80
13707;DHT22;6925;47.816;13.072;2022-07-22T03:12:07;22.50;75.70
13707;DHT22;6925;47.816;13.072;2022-07-22T03:14:38;22.60;75.70
13707;DHT22;6925;47.816;13.072;2022-07-22T03:17:15;22.60;75.60
13707;DHT22;6925;47.816;13.072;2022-07-22T03:19:55;22.60;75.70
13707;DHT22;6925;47.816;13.072;2022-07-22T03:22:46;22.60;75.70
13707;DHT22;6925;47.816;13.072;2022-07-22T03:25:23;22.50;75.80
13707;DHT22;6925;47.816;13.072;2022-07-22T03:28:09;22.50;75.80
13707;DHT22;6925;47.816;13.072;2022-07-22T03:30:51;22.50;75.80
13707;DHT22;6925;47.816;13.072;2022-07-22T03:36:01;22.60;75.80
13707;DHT22;6925;47.816;13.072;2022-07-22T03:38:34;22.50;75.70
13707;DHT22;6925;47.816;13.072;2022-07-22T03:41:20;22.50;75.70
13707;DHT22;6925;47.816;13.072;2022-07-22T07:03:36;23.70;76.80
13707;DHT22;6925;47.816;13.072;2022-07-22T07:06:08;23.70;76.40
13707;DHT22;6925;47.816;13.072;2022-07-22T07:08:39;23.80;76.70
13707;DHT22;6925;47.816;13.072;2022-07-22T07:11:07;23.80;76.80
13707;DHT22;6925;47.816;13.072;2022-07-22T07:17:30;23.90;76.90
13707;DHT22;6925;47.816;13.072;2022-07-22T07:19:59;23.90;76.20
13707;DHT22;6925;47.816;13.072;2022-07-22T07:22:26;23.90;76.40
13707;DHT22;6925;47.816;13.072;2022-07-22T07:24:54;23.90;76.40
13707;DHT22;6925;47.816;13.072;2022-07-22T07:30:17;24.00;76.90
13707;DHT22;6925;47.816;13.072;2022-07-22T12:49:51;34.30;50.70
13707;DHT22;6925;47.816;13.072;2022-07-22T12:52:19;34.50;50.70
13707;DHT22;6925;47.816;13.072;2022-07-22T12:54:54;34.70;50.60
13707;DHT22;6925;47.816;13.072;2022-07-22T12:57:22;34.70;51.00
13707;DHT22;6925;47.816;13.072;2022-07-22T12:59:52;34.70;50.60
13707;DHT22;6925;47.816;13.072;2022-07-22T13:02:37;35.00;49.10
13707;DHT22;6925;47.816;13.072;2022-07-22T13:08:06;35.20;50.30
13707;DHT22;6925;47.816;13.072;2022-07-22T13:10:39;35.20;46.10
13707;DHT22;6925;47.816;13.072;2022-07-22T13:13:07;35.20;48.30
13707;DHT22;6925;47.816;13.072;2022-07-22T13:15:52;35.30;48.30
13707;DHT22;6925;47.816;13.072;2022-07-22T13:21:24;35.60;48.70
13707;DHT22;6925;47.816;13.072;2022-07-22T13:23:53;35.80;48.10
13707;DHT22;6925;47.816;13.072;2022-07-22T13:26:20;36.00;49.40
13707;DHT22;6925;47.816;13.072;2022-07-22T13:29:08;36.10;47.60
13707;DHT22;6925;47.816;13.072;2022-07-22T13:39:24;36.30;47.40
13707;DHT22;6925;47.816;13.072;2022-07-22T13:41:52;36.40;47.00
13707;DHT22;6925;47.816;13.072;2022-07-22T13:44:26;36.60;46.90
13707;DHT22;6925;47.816;13.072;2022-07-22T13:46:56;36.70;46.90
13707;DHT22;6925;47.816;13.072;2022-07-22T14:10:23;37.20;45.60
13707;DHT22;6925;47.816;13.072;2022-07-22T14:12:51;37.30;44.90
13707;DHT22;6925;47.816;13.072;2022-07-22T14:22:07;37.50;45.20
13707;DHT22;6925;47.816;13.072;2022-07-22T14:35:46;37.70;43.50
13707;DHT22;6925;47.816;13.072;2022-07-22T14:38:14;37.60;44.40
13707;DHT22;6925;47.816;13.072;2022-07-22T14:45:55;37.80;44.50
13707;DHT22;6925;47.816;13.072;2022-07-22T14:48:23;37.70;43.90
13707;DHT22;6925;47.816;13.072;2022-07-22T14:56:20;37.70;43.50
13707;DHT22;6925;47.816;13.072;2022-07-22T15:17:42;37.70;43.80
13707;DHT22;6925;47.816;13.072;2022-07-22T15:20:12;37.80;44.10
13707;DHT22;6925;47.816;13.072;2022-07-22T15:22:39;37.70;44.20
13707;DHT22;6925;47.816;13.072;2022-07-22T15:28:33;37.70;44.40
13707;DHT22;6925;47.816;13.072;2022-07-22T15:33:39;37.30;44.10
13707;DHT22;6925;47.816;13.072;2022-07-22T15:36:08;37.40;44.50
13707;DHT22;6925;47.816;13.072;2022-07-22T15:38:36;37.30;44.30
13707;DHT22;6925;47.816;13.072;2022-07-22T15:41:04;37.20;43.80
13707;DHT22;6925;47.816;13.072;2022-07-22T15:43:35;37.10;44.30
13707;DHT22;6925;47.816;13.072;2022-07-22T15:46:05;37.00;45.40
13707;DHT22;6925;47.816;13.072;2022-07-22T15:48:32;37.00;45.30
13707;DHT22;6925;47.816;13.072;2022-07-22T15:51:01;37.00;45.20
13707;DHT22;6925;47.816;13.072;2022-07-22T15:53:28;37.10;45.00
13707;DHT22;6925;47.816;13.072;2022-07-22T15:55:55;37.00;44.70
13707;DHT22;6925;47.816;13.072;2022-07-22T15:58:23;37.00;44.70
13707;DHT22;6925;47.816;13.072;2022-07-22T16:01:07;37.00;44.70
13707;DHT22;6925;47.816;13.072;2022-07-22T16:03:35;37.00;45.10
13707;DHT22;6925;47.816;13.072;2022-07-22T16:06:04;36.90;44.90
13707;DHT22;6925;47.816;13.072;2022-07-22T16:08:31;36.90;45.50
13707;DHT22;6925;47.816;13.072;2022-07-22T16:10:59;36.80;46.00
13707;DHT22;6925;47.816;13.072;2022-07-22T16:13:26;36.80;46.20
13707;DHT22;6925;47.816;13.072;2022-07-22T16:15:54;36.70;45.80
13707;DHT22;6925;47.816;13.072;2022-07-22T16:18:22;36.70;45.70
13707;DHT22;6925;47.816;13.072;2022-07-22T16:20:50;36.60;46.60
13707;DHT22;6925;47.816;13.072;2022-07-22T16:23:20;36.50;45.90
13707;DHT22;6925;47.816;13.072;2022-07-22T16:25:48;36.50;45.90
13707;DHT22;6925;47.816;13.072;2022-07-22T16:28:15;36.30;45.50
13707;DHT22;6925;47.816;13.072;2022-07-22T16:30:42;36.20;45.60
13707;DHT22;6925;47.816;13.072;2022-07-22T16:33:10;36.00;46.20
13707;DHT22;6925;47.816;13.072;2022-07-22T16:35:56;35.90;46.00
13707;DHT22;6925;47.816;13.072;2022-07-22T16:41:53;35.70;46.60
13707;DHT22;6925;47.816;13.072;2022-07-22T16:44:28;35.70;47.20
13707;DHT22;6925;47.816;13.072;2022-07-22T16:46:56;35.60;46.90
13707;DHT22;6925;47.816;13.072;2022-07-22T16:49:25;35.60;47.30
13707;DHT22;6925;47.816;13.072;2022-07-22T16:51:52;35.50;47.60
13707;DHT22;6925;47.816;13.072;2022-07-22T16:54:20;35.40;47.10
13707;DHT22;6925;47.816;13.072;2022-07-22T16:56:48;35.30;47.10
13707;DHT22;6925;47.816;13.072;2022-07-22T16:59:16;35.20;47.50
13707;DHT22;6925;47.816;13.072;2022-07-22T17:01:43;35.10;47.30
13707;DHT22;6925;47.816;13.072;2022-07-22T17:04:10;35.00;47.70
13707;DHT22;6925;47.816;13.072;2022-07-22T17:06:37;34.90;48.00
13707;DHT22;6925;47.816;13.072;2022-07-22T17:09:05;34.80;48.70
13707;DHT22;6925;47.816;13.072;2022-07-22T17:11:33;34.70;48.70
13707;DHT22;6925;47.816;13.072;2022-07-22T17:14:02;34.60;49.00
13707;DHT22;6925;47.816;13.072;2022-07-22T17:16:30;34.60;49.30
13707;DHT22;6925;47.816;13.072;2022-07-22T17:18:58;34.50;49.20
13707;DHT22;6925;47.816;13.072;2022-07-22T17:21:25;34.40;49.60
13707;DHT22;6925;47.816;13.072;2022-07-22T17:23:52;34.30;50.10
13707;DHT22;6925;47.816;13.072;2022-07-22T17:26:20;34.20;50.50
13707;DHT22;6925;47.816;13.072;2022-07-22T17:28:50;34.10;50.30
13707;DHT22;6925;47.816;13.072;2022-07-22T17:31:21;34.00;50.70
13707;DHT22;6925;47.816;13.072;2022-07-22T17:33:49;33.90;50.80
13707;DHT22;6925;47.816;13.072;2022-07-22T17:36:17;33.70;50.90
13707;DHT22;6925;47.816;13.072;2022-07-22T17:38:44;33.60;51.00
13707;DHT22;6925;47.816;13.072;2022-07-22T17:41:12;33.40;51.40
13707;DHT22;6925;47.816;13.072;2022-07-22T17:43:40;33.30;50.80
13707;DHT22;6925;47.816;13.072;2022-07-22T17:46:08;33.10;51.40
13707;DHT22;6925;47.816;13.072;2022-07-22T17:48:38;33.00;51.10
13707;DHT22;6925;47.816;13.072;2022-07-22T17:51:05;32.90;51.70
13707;DHT22;6925;47.816;13.072;2022-07-22T17:53:33;32.80;51.90
13707;DHT22;6925;47.816;13.072;2022-07-22T17:56:00;32.70;52.30
13707;DHT22;6925;47.816;13.072;2022-07-22T17:58:28;32.60;52.50
13707;DHT22;6925;47.816;13.072;2022-07-22T18:00:55;32.50;53.00
13707;DHT22;6925;47.816;13.072;2022-07-22T18:03:22;32.40;53.30
13707;DHT22;6925;47.816;13.072;2022-07-22T18:05:52;32.30;53.40
13707;DHT22;6925;47.816;13.072;2022-07-22T18:08:21;32.20;53.60
13707;DHT22;6925;47.816;13.072;2022-07-22T18:10:49;32.10;54.30
13707;DHT22;6925;47.816;13.072;2022-07-22T18:13:16;32.00;54.10
13707;DHT22;6925;47.816;13.072;2022-07-22T18:15:44;31.90;54.30
13707;DHT22;6925;47.816;13.072;2022-07-22T18:18:12;31.80;54.50
13707;DHT22;6925;47.816;13.072;2022-07-22T18:20:39;31.70;54.90
13707;DHT22;6925;47.816;13.072;2022-07-22T18:23:08;31.60;54.90
13707;DHT22;6925;47.816;13.072;2022-07-22T18:25:36;31.60;55.50
13707;DHT22;6925;47.816;13.072;2022-07-22T18:28:03;31.50;55.10
13707;DHT22;6925;47.816;13.072;2022-07-22T18:30:31;31.40;55.10
13707;DHT22;6925;47.816;13.072;2022-07-22T18:32:58;31.40;55.50
13707;DHT22;6925;47.816;13.072;2022-07-22T18:35:26;31.30;55.40
13707;DHT22;6925;47.816;13.072;2022-07-22T18:37:53;31.20;55.70
13707;DHT22;6925;47.816;13.072;2022-07-22T18:40:22;31.20;56.30
13707;DHT22;6925;47.816;13.072;2022-07-22T18:42:49;31.00;56.60
13707;DHT22;6925;47.816;13.072;2022-07-22T18:45:17;31.00;56.80
13707;DHT22;6925;47.816;13.072;2022-07-22T18:47:45;30.90;56.90
13707;DHT22;6925;47.816;13.072;2022-07-22T18:50:12;30.80;56.90
13707;DHT22;6925;47.816;13.072;2022-07-22T18:52:44;30.80;57.40
13707;DHT22;6925;47.816;13.072;2022-07-22T18:55:11;30.70;57.50
13707;DHT22;6925;47.816;13.072;2022-07-22T18:57:41;30.70;57.80
13707;DHT22;6925;47.816;13.072;2022-07-22T19:00:10;30.60;58.10
13707;DHT22;6925;47.816;13.072;2022-07-22T19:02:37;30.50;58.50
13707;DHT22;6925;47.816;13.072;2022-07-22T19:05:05;30.40;58.50
13707;DHT22;6925;47.816;13.072;2022-07-22T19:07:32;30.40;58.70
13707;DHT22;6925;47.816;13.072;2022-07-22T19:09:59;30.30;58.80
13707;DHT22;6925;47.816;13.072;2022-07-22T19:12:28;30.30;59.10
13707;DHT22;6925;47.816;13.072;2022-07-22T19:14:57;30.20;58.90
13707;DHT22;6925;47.816;13.072;2022-07-22T19:17:25;30.10;59.60
13707;DHT22;6925;47.816;13.072;2022-07-22T19:19:52;30.00;59.50
13707;DHT22;6925;47.816;13.072;2022-07-22T19:22:19;30.00;59.30
13707;DHT22;6925;47.816;13.072;2022-07-22T19:24:47;29.90;59.70
13707;DHT22;6925;47.816;13.072;2022-07-22T19:27:15;29.90;60.00
13707;DHT22;6925;47.816;13.072;2022-07-22T19:29:42;29.80;60.10
13707;DHT22;6925;47.816;13.072;2022-07-22T19:32:11;29.80;60.20
13707;DHT22;6925;47.816;13.072;2022-07-22T19:34:38;29.80;60.20
13707;DHT22;6925;47.816;13.072;2022-07-22T19:37:06;29.70;60.30
13707;DHT22;6925;47.816;13.072;2022-07-22T19:39:33;29.70;60.50
13707;DHT22;6925;47.816;13.072;2022-07-22T19:42:01;29.60;60.50
13707;DHT22;6925;47.816;13.072;2022-07-22T19:44:29;29.60;61.00
13707;DHT22;6925;47.816;13.072;2022-07-22T19:46:56;29.60;61.20
13707;DHT22;6925;47.816;13.072;2022-07-22T19:49:25;29.50;61.30
13707;DHT22;6925;47.816;13.072;2022-07-22T19:51:52;29.50;61.20
13707;DHT22;6925;47.816;13.072;2022-07-22T19:54:20;29.40;60.90
13707;DHT22;6925;47.816;13.072;2022-07-22T19:56:47;29.50;60.70
13707;DHT22;6925;47.816;13.072;2022-07-22T19:59:14;29.30;61.50
13707;DHT22;6925;47.816;13.072;2022-07-22T20:01:41;29.40;62.20
13707;DHT22;6925;47.816;13.072;2022-07-22T20:04:09;29.30;62.20
13707;DHT22;6925;47.816;13.072;2022-07-22T20:06:38;29.30;61.90
13707;DHT22;6925;47.816;13.072;2022-07-22T20:09:08;29.20;62.20
13707;DHT22;6925;47.816;13.072;2022-07-22T20:11:36;29.20;62.40
13707;DHT22;6925;47.816;13.072;2022-07-22T20:14:07;29.10;62.40
13707;DHT22;6925;47.816;13.072;2022-07-22T20:16:35;29.10;62.30
13707;DHT22;6925;47.816;13.072;2022-07-22T20:19:02;29.10;62.60
13707;DHT22;6925;47.816;13.072;2022-07-22T20:21:30;29.00;63.20
13707;DHT22;6925;47.816;13.072;2022-07-22T20:24:02;29.00;63.50
13707;DHT22;6925;47.816;13.072;2022-07-22T20:26:31;29.00;63.50
13707;DHT22;6925;47.816;13.072;2022-07-22T20:28:59;28.90;63.90
13707;DHT22;6925;47.816;13.072;2022-07-22T20:31:46;28.90;64.40
13707;DHT22;6925;47.816;13.072;2022-07-22T20:34:14;28.90;64.50
13707;DHT22;6925;47.816;13.072;2022-07-22T21:10:35;28.50;64.30
13707;DHT22;6925;47.816;13.072;2022-07-22T21:13:03;28.40;63.90
13707;DHT22;6925;47.816;13.072;2022-07-22T21:15:30;28.30;63.80
13707;DHT22;6925;47.816;13.072;2022-07-22T21:17:59;28.30;63.70
13707;DHT22;6925;47.816;13.072;2022-07-22T21:20:26;28.20;63.20
13707;DHT22;6925;47.816;13.072;2022-07-22T21:22:54;28.10;62.10
13707;DHT22;6925;47.816;13.072;2022-07-22T21:25:21;27.90;62.30
13707;DHT22;6925;47.816;13.072;2022-07-22T21:27:52;27.80;61.20
13707;DHT22;6925;47.816;13.072;2022-07-22T21:30:19;27.80;57.60
13707;DHT22;6925;47.816;13.072;2022-07-22T21:32:48;27.60;58.60
13707;DHT22;6925;47.816;13.072;2022-07-22T21:35:16;27.60;59.60
13707;DHT22;6925;47.816;13.072;2022-07-22T21:37:44;27.60;60.50
13707;DHT22;6925;47.816;13.072;2022-07-22T21:40:12;27.60;60.70
13707;DHT22;6925;47.816;13.072;2022-07-22T21:42:39;27.60;59.30
13707;DHT22;6925;47.816;13.072;2022-07-22T21:45:23;27.60;59.20
13707;DHT22;6925;47.816;13.072;2022-07-22T21:47:53;27.60;60.30
13707;DHT22;6925;47.816;13.072;2022-07-22T21:50:28;27.50;60.70
13707;DHT22;6925;47.816;13.072;2022-07-22T21:53:12;27.60;61.20
13707;DHT22;6925;47.816;13.072;2022-07-22T22:01:25;27.50;65.40
13707;DHT22;6925;47.816;13.072;2022-07-22T22:03:58;27.50;65.30
13707;DHT22;6925;47.816;13.072;2022-07-22T22:06:26;27.40;62.90
13707;DHT22;6925;47.816;13.072;2022-07-22T22:14:50;27.00;57.80
13707;DHT22;6925;47.816;13.072;2022-07-22T22:17:21;26.70;57.00
13707;DHT22;6925;47.816;13.072;2022-07-22T22:22:32;26.40;55.50
13707;DHT22;6925;47.816;13.072;2022-07-22T22:24:59;26.30;55.90
13707;DHT22;6925;47.816;13.072;2022-07-22T22:27:29;26.30;56.40
13707;DHT22;6925;47.816;13.072;2022-07-22T22:30:13;26.30;54.90
13707;DHT22;6925;47.816;13.072;2022-07-22T22:32:41;26.20;53.10
13707;DHT22;6925;47.816;13.072;2022-07-22T22:35:09;26.10;53.80
13707;DHT22;6925;47.816;13.072;2022-07-22T22:37:37;26.10;54.80
13707;DHT22;6925;47.816;13.072;2022-07-22T22:40:05;26.10;54.10
13707;DHT22;6925;47.816;13.072;2022-07-22T22:42:32;26.10;55.60
13707;DHT22;6925;47.816;13.072;2022-07-22T22:45:00;26.10;55.30
13707;DHT22;6925;47.816;13.072;2022-07-22T23:12:52;25.50;60.50
13707;DHT22;6925;47.816;13.072;2022-07-22T23:15:32;25.60;59.30
13707;DHT22;6925;47.816;13.072;2022-07-22T23:30:05;25.40;58.40
13707;DHT22;6925;47.816;13.072;2022-07-22T23:32:37;25.40;56.90
13707;DHT22;6925;47.816;13.072;2022-07-22T23:35:13;25.30;57.20
13707;DHT22;6925;47.816;13.072;2022-07-22T23:54:54;24.90;63.10
